createdAt,value
2019-04-10T00:00:44.834Z,30.93
2019-04-10T00:03:25.928Z,33.10
2019-04-10T00:05:47.951Z,37.53
2019-04-10T00:08:17.881Z,31.80
2019-04-10T00:10:47.918Z,28.53
2019-04-10T00:13:18.433Z,32.77
2019-04-10T00:15:48.717Z,31.73
2019-04-10T00:18:18.697Z,36.50
2019-04-10T00:20:49.123Z,34.57
2019-04-10T00:23:19.323Z,37.17
2019-04-10T00:25:48.976Z,30.40
2019-04-10T00:28:19.160Z,36.23
2019-04-10T00:30:49.383Z,33.93
2019-04-10T00:33:19.040Z,29.00
2019-04-10T00:35:49.867Z,31.17
2019-04-10T00:38:19.838Z,28.50
2019-04-10T00:40:49.960Z,29.63
2019-04-10T00:43:19.608Z,35.70
2019-04-10T00:45:49.444Z,29.60
2019-04-10T00:48:19.811Z,36.40
2019-04-10T00:50:50.878Z,34.57
2019-04-10T00:53:21.214Z,31.00
2019-04-10T00:55:50.949Z,31.20
2019-04-10T00:58:20.509Z,32.87
2019-04-10T01:00:50.426Z,30.33
2019-04-10T01:03:38.275Z,29.53
2019-04-10T01:06:08.149Z,29.07
2019-04-10T01:08:37.706Z,27.03
2019-04-10T01:11:08.374Z,24.97
2019-04-10T01:13:38.611Z,27.20
2019-04-10T01:16:09.219Z,28.40
2019-04-10T01:18:39.509Z,28.40
2019-04-10T01:21:11.005Z,29.80
2019-04-10T01:23:41.421Z,24.00
2019-04-10T01:26:11.162Z,21.80
2019-04-10T01:28:40.901Z,23.83
2019-04-10T01:31:10.871Z,27.60
2019-04-10T01:33:40.947Z,23.83
2019-04-10T01:36:10.998Z,28.83
2019-04-10T01:38:40.599Z,25.37
2019-04-10T01:41:10.161Z,23.90
2019-04-10T01:43:40.021Z,19.97
2019-04-10T01:46:10.313Z,22.67
2019-04-10T01:48:39.998Z,28.10
2019-04-10T01:51:09.563Z,19.70
2019-04-10T01:53:39.122Z,27.10
2019-04-10T01:56:21.213Z,21.47
2019-04-10T01:58:41.856Z,23.53
2019-04-10T02:01:34.686Z,23.60
2019-04-10T02:04:04.706Z,20.43
2019-04-10T02:06:34.408Z,21.00
2019-04-10T02:09:06.766Z,22.20
2019-04-10T02:11:37.637Z,21.60
2019-04-10T02:14:07.838Z,17.20
2019-04-10T02:16:55.293Z,19.40
2019-04-10T02:19:26.092Z,20.67
2019-04-10T02:21:56.103Z,17.67
2019-04-10T02:24:25.891Z,17.90
2019-04-10T02:26:56.087Z,18.83
2019-04-10T02:29:26.010Z,15.20
2019-04-10T02:31:57.390Z,18.60
2019-04-10T02:34:28.393Z,16.67
2019-04-10T02:36:58.665Z,14.97
2019-04-10T02:39:37.395Z,19.03
2019-04-10T02:42:00.564Z,15.63
2019-04-10T02:44:30.689Z,15.63
2019-04-10T02:47:01.990Z,19.17
2019-04-10T02:49:32.061Z,15.67
2019-04-10T02:52:01.786Z,16.07
2019-04-10T02:54:31.341Z,17.33
2019-04-10T02:57:01.100Z,15.87
2019-04-10T02:59:31.132Z,17.47
2019-04-10T03:02:02.302Z,13.30
2019-04-10T03:04:33.049Z,14.30
2019-04-10T03:07:04.115Z,15.13
2019-04-10T03:09:49.420Z,14.17
2019-04-10T03:12:06.251Z,13.87
2019-04-10T03:14:36.791Z,17.93
2019-04-10T03:17:07.975Z,16.07
2019-04-10T03:19:37.949Z,15.30
2019-04-10T03:22:09.006Z,16.47
2019-04-10T03:24:40.086Z,14.40
2019-04-10T03:27:10.143Z,14.00
2019-04-10T03:29:40.003Z,11.73
2019-04-10T03:32:33.234Z,12.13
2019-04-10T03:35:04.105Z,15.83
2019-04-10T03:37:34.117Z,13.97
2019-04-10T03:40:04.880Z,13.90
2019-04-10T03:42:34.521Z,13.10
2019-04-10T03:45:05.548Z,14.33
2019-04-10T03:47:35.578Z,14.57
2019-04-10T03:50:06.566Z,14.63
2019-04-10T03:52:36.234Z,14.77
2019-04-10T03:55:05.896Z,14.70
2019-04-10T03:57:36.408Z,14.67
2019-04-10T04:00:06.513Z,11.83
2019-04-10T04:02:36.704Z,15.00
2019-04-10T04:05:06.573Z,15.33
2019-04-10T04:07:36.826Z,14.60
2019-04-10T04:10:06.773Z,15.33
2019-04-10T04:12:37.026Z,14.80
2019-04-10T04:15:07.115Z,11.57
2019-04-10T04:17:36.702Z,15.97
2019-04-10T04:20:06.572Z,14.23
2019-04-10T04:22:37.004Z,12.03
2019-04-10T04:25:08.707Z,14.93
2019-04-10T04:27:38.451Z,13.60
2019-04-10T04:30:08.475Z,16.30
2019-04-10T04:32:38.197Z,14.93
2019-04-10T04:35:08.992Z,13.53
2019-04-10T04:37:38.621Z,13.73
2019-04-10T04:40:09.042Z,19.63
2019-04-10T04:42:38.833Z,16.50
2019-04-10T04:45:08.755Z,16.97
2019-04-10T04:47:39.168Z,12.33
2019-04-10T04:50:09.791Z,14.87
2019-04-10T04:52:39.697Z,15.87
2019-04-10T04:55:10.119Z,14.57
2019-04-10T04:57:41.048Z,14.57
2019-04-10T05:00:11.726Z,13.43
2019-04-10T05:02:42.620Z,17.70
2019-04-10T05:05:12.395Z,13.53
2019-04-10T05:07:54.743Z,11.77
2019-04-10T05:10:15.389Z,13.60
2019-04-10T05:12:45.221Z,13.00
2019-04-10T05:15:16.405Z,15.73
2019-04-10T05:17:47.010Z,15.30
2019-04-10T05:20:17.045Z,17.07
2019-04-10T05:22:46.733Z,13.97
2019-04-10T05:25:16.831Z,14.50
2019-04-10T05:27:46.927Z,18.13
2019-04-10T05:30:16.555Z,16.23
2019-04-10T05:32:47.281Z,16.37
2019-04-10T05:35:17.275Z,13.67
2019-04-10T05:37:47.842Z,15.70
2019-04-10T05:40:17.789Z,20.13
2019-04-10T05:42:47.913Z,13.00
2019-04-10T05:45:19.232Z,15.67
2019-04-10T05:47:48.780Z,19.10
2019-04-10T05:50:19.368Z,22.07
2019-04-10T05:52:49.788Z,15.80
2019-04-10T05:55:20.433Z,20.20
2019-04-10T05:57:51.116Z,18.40
2019-04-10T06:00:22.972Z,17.50
2019-04-10T06:02:52.642Z,16.13
2019-04-10T06:05:22.542Z,18.07
2019-04-10T06:07:53.824Z,15.63
2019-04-10T06:10:24.668Z,13.83
2019-04-10T06:13:13.289Z,15.73
2019-04-10T06:15:43.376Z,19.60
2019-04-10T06:18:13.927Z,17.53
2019-04-10T06:20:45.257Z,16.77
2019-04-10T06:23:15.054Z,17.33
2019-04-10T06:25:45.816Z,20.03
2019-04-10T06:28:16.923Z,14.80
2019-04-10T06:30:48.038Z,14.43
2019-04-10T06:33:30.311Z,14.30
2019-04-10T06:36:00.819Z,15.63
2019-04-10T06:38:30.868Z,13.27
2019-04-10T06:41:00.528Z,14.97
2019-04-10T06:43:48.244Z,16.90
2019-04-10T06:46:17.796Z,14.63
2019-04-10T06:48:47.950Z,18.80
2019-04-10T06:51:19.809Z,14.63
2019-04-10T06:54:00.103Z,15.97
2019-04-10T06:56:20.866Z,18.10
2019-04-10T06:58:52.004Z,20.17
2019-04-10T07:01:23.518Z,17.27
2019-04-10T07:04:09.767Z,16.77
2019-04-10T07:06:55.930Z,14.20
2019-04-10T07:09:24.483Z,14.93
2019-04-10T07:11:56.872Z,19.50
2019-04-10T07:14:24.689Z,19.60
2019-04-10T07:16:54.936Z,16.50
2019-04-10T07:19:24.659Z,19.20
2019-04-10T07:21:55.252Z,22.77
2019-04-10T07:24:25.420Z,16.77
2019-04-10T07:26:55.270Z,16.23
2019-04-10T07:29:27.645Z,19.03
2019-04-10T07:31:56.503Z,17.60
2019-04-10T07:34:29.490Z,19.60
2019-04-10T07:36:58.146Z,14.70
2019-04-10T07:39:30.378Z,15.40
2019-04-10T07:41:59.986Z,17.93
2019-04-10T07:44:29.710Z,15.07
2019-04-10T07:47:00.861Z,19.33
2019-04-10T07:49:31.437Z,16.17
2019-04-10T07:52:02.481Z,12.80
2019-04-10T07:54:33.168Z,14.33
2019-04-10T07:57:02.796Z,15.43
2019-04-10T07:59:33.324Z,14.37
2019-04-10T08:02:05.951Z,19.20
2019-04-10T08:04:35.378Z,16.00
2019-04-10T08:07:05.459Z,17.03
2019-04-10T08:09:36.018Z,15.30
2019-04-10T08:12:07.180Z,13.67
2019-04-10T08:14:46.539Z,16.33
2019-04-10T08:17:16.392Z,18.93
2019-04-10T08:19:46.713Z,16.17
2019-04-10T08:22:16.536Z,18.90
2019-04-10T08:24:47.275Z,15.27
2019-04-10T08:27:17.615Z,15.13
2019-04-10T08:29:48.393Z,14.87
2019-04-10T08:32:18.446Z,15.13
2019-04-10T08:34:48.795Z,15.67
2019-04-10T08:37:20.638Z,14.77
2019-04-10T08:39:51.387Z,16.00
2019-04-10T08:42:22.432Z,14.63
2019-04-10T08:44:52.228Z,14.37
2019-04-10T08:47:22.753Z,17.73
2019-04-10T08:49:52.867Z,15.70
2019-04-10T08:52:22.520Z,14.60
2019-04-10T08:54:53.152Z,18.13
2019-04-10T08:57:22.877Z,18.13
2019-04-10T08:59:52.716Z,13.80
2019-04-10T09:02:22.497Z,18.47
2019-04-10T09:04:53.117Z,16.10
2019-04-10T09:07:22.812Z,15.63
2019-04-10T09:09:52.641Z,15.87
2019-04-10T09:12:22.484Z,18.33
2019-04-10T09:14:52.304Z,15.73
2019-04-10T09:17:22.819Z,15.83
2019-04-10T09:20:53.101Z,16.77
2019-04-10T09:23:33.053Z,17.03
2019-04-10T09:25:54.095Z,16.70
2019-04-10T09:28:24.368Z,18.43
2019-04-10T09:30:55.256Z,16.47
2019-04-10T09:33:28.221Z,16.47
2019-04-10T09:35:57.193Z,15.67
2019-04-10T09:38:26.764Z,16.87
2019-04-10T09:40:57.338Z,14.67
2019-04-10T09:43:27.396Z,15.13
2019-04-10T09:45:57.408Z,16.57
2019-04-10T09:48:27.043Z,13.33
2019-04-10T09:51:00.310Z,14.73
2019-04-10T09:53:30.016Z,17.30
2019-04-10T09:55:59.708Z,15.43
2019-04-10T09:58:29.555Z,17.17
2019-04-10T10:01:01.414Z,18.33
2019-04-10T10:03:32.509Z,15.47
2019-04-10T10:06:02.158Z,14.40
2019-04-10T10:08:32.364Z,14.17
2019-04-10T10:11:02.217Z,15.10
2019-04-10T10:13:31.876Z,18.17
2019-04-10T10:16:02.893Z,14.80
2019-04-10T10:18:33.155Z,15.97
2019-04-10T10:21:04.115Z,12.23
2019-04-10T10:23:33.986Z,13.80
2019-04-10T10:26:03.832Z,11.27
2019-04-10T10:28:33.829Z,12.73
2019-04-10T10:31:04.055Z,13.50
2019-04-10T10:33:34.098Z,12.47
2019-04-10T10:36:04.073Z,12.67
2019-04-10T10:38:34.862Z,12.37
2019-04-10T10:41:04.925Z,9.80
2019-04-10T10:43:34.770Z,12.60
2019-04-10T10:46:04.496Z,13.37
2019-04-10T10:48:34.052Z,12.87
2019-04-10T10:51:04.608Z,12.63
2019-04-10T10:53:34.561Z,12.93
2019-04-10T10:56:04.521Z,14.07
2019-04-10T10:58:35.265Z,14.17
2019-04-10T11:01:05.374Z,14.17
2019-04-10T11:03:35.272Z,11.77
2019-04-10T11:06:04.820Z,12.30
2019-04-10T11:08:35.498Z,15.43
2019-04-10T11:11:06.241Z,11.67
2019-04-10T11:13:36.995Z,13.03
2019-04-10T11:16:07.526Z,14.30
2019-04-10T11:18:38.034Z,11.50
2019-04-10T11:21:11.306Z,14.43
2019-04-10T11:23:39.069Z,10.77
2019-04-10T11:26:08.693Z,10.17
2019-04-10T11:28:39.286Z,13.03
2019-04-10T11:31:09.292Z,12.73
2019-04-10T11:33:39.909Z,12.00
2019-04-10T11:36:10.336Z,10.53
2019-04-10T11:38:42.159Z,14.50
2019-04-10T11:41:12.517Z,10.50
2019-04-10T11:44:00.205Z,10.07
2019-04-10T11:46:32.103Z,10.73
2019-04-10T11:49:02.551Z,12.80
2019-04-10T11:51:34.250Z,11.90
2019-04-10T11:54:07.298Z,11.43
2019-04-10T11:56:36.310Z,12.67
2019-04-10T11:59:09.280Z,13.60
2019-04-10T12:01:39.255Z,10.50
2019-04-10T12:04:10.766Z,13.67
2019-04-10T12:06:40.720Z,15.20
2019-04-10T12:10:01.946Z,13.83
2019-04-10T12:11:48.937Z,14.20
2019-04-10T12:14:19.425Z,11.03
2019-04-10T12:16:49.494Z,11.63
2019-04-10T12:19:19.354Z,11.83
2019-04-10T12:21:50.306Z,11.27
2019-04-10T12:24:20.015Z,13.27
2019-04-10T12:26:49.928Z,12.60
2019-04-10T12:29:19.905Z,13.17
2019-04-10T12:31:50.304Z,14.93
2019-04-10T12:34:20.252Z,10.47
2019-04-10T12:36:51.831Z,11.73
2019-04-10T12:39:22.548Z,12.23
2019-04-10T12:41:52.308Z,11.00
2019-04-10T12:44:23.160Z,13.20
2019-04-10T12:46:53.334Z,14.13
2019-04-10T12:49:23.439Z,12.90
2019-04-10T12:51:54.149Z,14.30
2019-04-10T12:54:24.097Z,13.03
2019-04-10T12:56:54.654Z,12.40
2019-04-10T12:59:25.700Z,12.83
2019-04-10T13:01:55.509Z,13.33
2019-04-10T13:04:25.581Z,13.97
2019-04-10T13:06:56.894Z,15.37
2019-04-10T13:09:27.100Z,15.53
2019-04-10T13:11:56.989Z,13.10
2019-04-10T13:14:27.113Z,15.00
2019-04-10T13:16:57.012Z,13.70
2019-04-10T13:19:27.116Z,11.70
2019-04-10T13:21:57.894Z,13.00
2019-04-10T13:24:27.949Z,13.67
2019-04-10T13:26:58.591Z,13.87
2019-04-10T13:29:28.308Z,11.40
2019-04-10T13:31:57.877Z,10.50
2019-04-10T13:34:27.741Z,10.83
2019-04-10T13:36:57.272Z,10.93
2019-04-10T13:39:27.256Z,10.57
2019-04-10T13:41:57.173Z,13.43
2019-04-10T13:44:26.713Z,9.67
2019-04-10T13:46:57.354Z,10.40
2019-04-10T13:49:28.297Z,11.30
2019-04-10T13:51:59.521Z,10.77
2019-04-10T13:54:30.456Z,14.23
2019-04-10T13:57:00.142Z,12.50
2019-04-10T13:59:31.174Z,10.07
2019-04-10T14:02:13.172Z,13.47
2019-04-10T14:04:43.010Z,11.03
2019-04-10T14:07:13.409Z,11.33
2019-04-10T14:09:48.237Z,12.60
2019-04-10T14:12:14.673Z,12.17
2019-04-10T14:14:44.620Z,12.00
2019-04-10T14:17:14.648Z,10.07
2019-04-10T14:19:45.541Z,9.77
2019-04-10T14:22:15.659Z,9.47
2019-04-10T14:24:48.226Z,10.53
2019-04-10T14:27:22.549Z,10.80
2019-04-10T14:29:52.762Z,9.53
2019-04-10T14:32:37.525Z,11.23
2019-04-10T14:35:09.428Z,11.83
2019-04-10T14:37:39.455Z,10.93
2019-04-10T14:40:11.489Z,12.83
2019-04-10T14:42:42.473Z,13.17
2019-04-10T14:45:13.138Z,10.97
2019-04-10T14:47:43.485Z,10.87
2019-04-10T14:50:13.659Z,13.53
2019-04-10T14:52:43.587Z,13.17
2019-04-10T14:55:14.449Z,13.40
2019-04-10T14:57:45.255Z,11.53
2019-04-10T15:00:44.531Z,13.30
2019-04-10T15:03:14.374Z,10.73
2019-04-10T15:05:49.797Z,11.90
2019-04-10T15:08:15.852Z,13.87
2019-04-10T15:10:45.861Z,13.60
2019-04-10T15:13:19.778Z,11.90
2019-04-10T15:15:48.281Z,10.70
2019-04-10T15:18:18.495Z,14.97
2019-04-10T15:20:49.359Z,13.03
2019-04-10T15:23:19.014Z,11.67
2019-04-10T15:25:49.277Z,11.57
2019-04-10T15:28:19.252Z,12.57
2019-04-10T15:30:48.826Z,12.30
2019-04-10T15:33:18.447Z,13.03
2019-04-10T15:35:48.570Z,12.20
2019-04-10T15:38:18.386Z,12.67
2019-04-10T15:40:48.498Z,13.13
2019-04-10T15:43:18.809Z,15.50
2019-04-10T15:45:54.688Z,12.53
2019-04-10T15:48:25.236Z,14.37
2019-04-10T15:50:55.896Z,13.53
2019-04-10T15:53:26.496Z,11.60
2019-04-10T15:55:57.787Z,12.13
2019-04-10T15:58:27.776Z,12.93
2019-04-10T16:00:59.385Z,12.10
2019-04-10T16:03:30.344Z,10.17
2019-04-10T16:06:00.375Z,10.50
2019-04-10T16:08:32.450Z,10.77
2019-04-10T16:11:19.878Z,11.10
2019-04-10T16:13:52.684Z,11.13
2019-04-10T16:16:42.290Z,10.93
2019-04-10T16:19:30.718Z,14.80
2019-04-10T16:22:02.722Z,10.67
2019-04-10T16:24:33.098Z,12.80
2019-04-10T16:27:03.464Z,13.20
2019-04-10T16:29:34.291Z,11.23
2019-04-10T16:32:04.917Z,12.57
2019-04-10T16:34:34.561Z,11.50
2019-04-10T16:37:04.277Z,12.37
2019-04-10T16:39:34.304Z,11.77
2019-04-10T16:42:03.939Z,11.70
2019-04-10T16:44:33.505Z,10.37
2019-04-10T16:47:03.762Z,10.73
2019-04-10T16:49:34.988Z,10.03
2019-04-10T16:52:05.002Z,9.50
2019-04-10T16:54:35.421Z,9.17
2019-04-10T16:57:05.192Z,9.70
2019-04-10T16:59:34.747Z,9.53
2019-04-10T17:02:04.364Z,10.83
2019-04-10T17:04:34.066Z,8.37
2019-04-10T17:07:03.864Z,10.50
2019-04-10T17:09:34.486Z,11.50
2019-04-10T17:12:06.287Z,8.93
2019-04-10T17:14:35.643Z,7.73
2019-04-10T17:17:06.210Z,8.20
2019-04-10T17:19:46.351Z,7.70
2019-04-10T17:22:30.106Z,10.27
2019-04-10T17:24:50.374Z,8.60
2019-04-10T17:27:21.603Z,6.93
2019-04-10T17:29:52.009Z,7.63
2019-04-10T17:32:21.937Z,7.13
2019-04-10T17:34:51.673Z,8.53
2019-04-10T17:37:21.384Z,9.37
2019-04-10T17:39:57.746Z,9.87
2019-04-10T17:42:28.281Z,10.03
2019-04-10T17:44:58.260Z,9.83
2019-04-10T17:47:29.177Z,10.33
2019-04-10T17:50:00.166Z,8.37
2019-04-10T17:52:33.064Z,9.63
2019-04-10T17:55:03.065Z,9.43
2019-04-10T17:57:38.208Z,9.17
2019-04-10T18:00:08.991Z,10.33
2019-04-10T18:02:38.917Z,11.73
2019-04-10T18:05:08.736Z,10.13
2019-04-10T18:07:38.526Z,9.13
2019-04-10T18:10:09.608Z,7.47
2019-04-10T18:12:39.240Z,10.33
2019-04-10T18:15:09.396Z,9.57
2019-04-10T18:17:40.789Z,9.33
2019-04-10T18:20:11.123Z,11.93
2019-04-10T18:22:40.923Z,8.83
2019-04-10T18:25:11.830Z,8.37
2019-04-10T18:27:58.118Z,12.63
2019-04-10T18:30:34.503Z,8.65
2019-04-10T18:33:05.081Z,8.07
2019-04-10T18:35:35.320Z,9.47
2019-04-10T18:38:05.655Z,11.40
2019-04-10T18:40:35.546Z,10.93
2019-04-10T18:43:05.257Z,10.03
2019-04-10T18:45:35.585Z,6.67
2019-04-10T18:48:06.231Z,10.87
2019-04-10T18:50:36.238Z,7.10
2019-04-10T18:53:05.819Z,8.73
2019-04-10T18:55:36.451Z,8.87
2019-04-10T18:58:09.593Z,8.60
2019-04-10T19:00:59.473Z,8.60
2019-04-10T19:03:53.355Z,9.67
2019-04-10T19:06:24.938Z,7.30
2019-04-10T19:09:07.599Z,7.17
2019-04-10T19:11:30.219Z,12.03
2019-04-10T19:13:57.834Z,8.23
2019-04-10T19:16:29.751Z,7.83
2019-04-10T19:18:59.861Z,9.67
2019-04-10T19:21:29.637Z,8.30
2019-04-10T19:23:59.394Z,6.83
2019-04-10T19:26:29.485Z,8.53
2019-04-10T19:28:59.196Z,6.77
2019-04-10T19:31:29.870Z,6.93
2019-04-10T19:33:59.533Z,9.30
2019-04-10T19:36:29.972Z,8.27
2019-04-10T19:38:59.990Z,8.73
2019-04-10T19:41:36.676Z,7.77
2019-04-10T19:44:06.462Z,7.60
2019-04-10T19:46:37.583Z,7.00
2019-04-10T19:49:08.250Z,8.60
2019-04-10T19:51:38.521Z,9.80
2019-04-10T19:54:09.667Z,7.57
2019-04-10T19:56:40.473Z,7.90
2019-04-10T19:59:10.509Z,7.40
2019-04-10T20:01:40.672Z,7.23
2019-04-10T20:04:12.450Z,10.67
2019-04-10T20:06:42.728Z,9.00
2019-04-10T20:09:13.124Z,9.73
2019-04-10T20:11:48.641Z,8.07
2019-04-10T20:14:15.281Z,10.57
2019-04-10T20:16:45.047Z,8.23
2019-04-10T20:19:15.208Z,10.20
2019-04-10T20:21:45.160Z,9.30
2019-04-10T20:24:14.705Z,8.53
2019-04-10T20:26:45.349Z,7.90
2019-04-10T20:29:15.204Z,10.00
2019-04-10T20:31:45.677Z,8.43
2019-04-10T20:34:15.750Z,11.50
2019-04-10T20:36:45.340Z,8.17
2019-04-10T20:39:16.871Z,7.60
2019-04-10T20:41:51.868Z,12.57
2019-04-10T20:44:18.818Z,9.07
2019-04-10T20:46:48.762Z,13.97
2019-04-10T20:49:18.491Z,10.60
2019-04-10T20:51:49.014Z,11.60
2019-04-10T20:54:20.377Z,10.83
2019-04-10T20:56:50.806Z,11.95
2019-04-10T20:59:20.413Z,9.63
2019-04-10T21:01:50.244Z,8.70
2019-04-10T21:04:19.854Z,11.60
2019-04-10T21:06:50.106Z,11.00
2019-04-10T21:09:20.244Z,11.60
2019-04-10T21:12:00.828Z,11.00
2019-04-10T21:14:21.424Z,9.63
2019-04-10T21:17:03.132Z,9.97
2019-04-10T21:19:33.449Z,10.27
2019-04-10T21:22:03.785Z,9.50
2019-04-10T21:24:33.667Z,12.77
2019-04-10T21:27:03.558Z,9.53
2019-04-10T21:29:55.380Z,9.93
2019-04-10T21:32:55.304Z,10.93
2019-04-10T21:35:29.860Z,12.93
2019-04-10T21:37:59.409Z,12.73
2019-04-10T21:40:29.214Z,12.43
2019-04-10T21:42:58.772Z,9.63
2019-04-10T21:45:28.308Z,11.00
2019-04-10T21:47:57.911Z,14.07
2019-04-10T21:50:27.512Z,13.40
2019-04-10T21:52:57.513Z,13.63
2019-04-10T21:55:27.071Z,11.50
2019-04-10T21:57:57.621Z,10.67
2019-04-10T22:00:45.228Z,13.80
2019-04-10T22:03:14.848Z,13.73
2019-04-10T22:05:46.872Z,9.30
2019-04-10T22:08:39.358Z,10.50
2019-04-10T22:11:09.529Z,10.40
2019-04-10T22:13:40.089Z,11.37
2019-04-10T22:16:11.519Z,12.08
2019-04-10T22:18:41.457Z,13.00
2019-04-10T22:21:12.400Z,9.30
2019-04-10T22:23:42.714Z,13.80
2019-04-10T22:26:13.730Z,11.23
2019-04-10T22:28:43.644Z,10.63
2019-04-10T22:31:13.734Z,10.70
2019-04-10T22:33:44.674Z,11.20
2019-04-10T22:36:14.984Z,11.40
2019-04-10T22:38:46.144Z,8.30
2019-04-10T22:41:23.648Z,13.57
2019-04-10T22:43:49.076Z,10.60
2019-04-10T22:46:19.329Z,10.97
2019-04-10T22:48:49.977Z,9.47
2019-04-10T22:51:19.614Z,9.37
2019-04-10T22:53:50.046Z,10.37
2019-04-10T22:56:20.963Z,10.67
2019-04-10T22:58:51.170Z,9.03
2019-04-10T23:01:20.896Z,11.00
2019-04-10T23:03:50.443Z,10.23
2019-04-10T23:06:20.821Z,11.00
2019-04-10T23:08:51.614Z,11.83
2019-04-10T23:11:34.150Z,9.27
2019-04-10T23:13:52.800Z,13.07
2019-04-10T23:16:22.428Z,9.47
2019-04-10T23:18:51.978Z,11.33
2019-04-10T23:21:22.708Z,8.50
2019-04-10T23:23:52.361Z,12.73
2019-04-10T23:26:22.840Z,9.33
2019-04-10T23:28:52.672Z,9.30
2019-04-10T23:31:23.739Z,9.70
2019-04-10T23:33:54.414Z,9.63
2019-04-10T23:36:24.671Z,10.90
2019-04-10T23:38:55.243Z,9.17
2019-04-10T23:41:25.540Z,8.50
2019-04-10T23:43:55.797Z,10.83
2019-04-10T23:46:26.383Z,8.83
2019-04-10T23:48:57.207Z,11.73
2019-04-10T23:51:27.443Z,11.20
2019-04-10T23:53:57.243Z,9.90
2019-04-10T23:56:27.375Z,9.33
2019-04-10T23:58:58.175Z,10.90
